Who's Online

We have 6 guests online

Aviation WX

[source: ADDS]
METAR
KIAD 210352Z 32013KT 10SM CLR 01/M11 A3009 RMK AO2 SLP192 T00111111 =
TAF
KIAD 202335Z 2100/2206 31010KT P6SM FEW250 FM211500 30014G24KT P6SM FEW050 FM212200 31009KT P6SM SKC FM220000 VRB03KT P6SM FEW250 =
SR / SS: 01:38 / 11:36 UTC (Washington-Dulles 2014-11-20)

JoomlaWatch Agent

Home Products and Services

This section describes Multilink Systems products and services

 

 

Under construction Please Standby